createdAt,value
2023-03-12T00:01:30.389Z,-0.50
2023-03-12T00:06:33.616Z,-0.60
2023-03-12T00:11:36.318Z,-0.60
2023-03-12T00:16:38.921Z,-0.70
2023-03-12T00:21:41.610Z,-0.80
2023-03-12T00:26:44.710Z,-1.00
2023-03-12T00:31:48.047Z,-1.10
2023-03-12T00:36:50.924Z,-1.20
2023-03-12T00:41:53.806Z,-1.40
2023-03-12T00:46:56.615Z,-1.40
2023-03-12T00:51:59.312Z,-1.40
2023-03-12T00:57:02.053Z,-1.50
2023-03-12T01:02:04.720Z,-1.60
2023-03-12T01:07:07.344Z,-1.60
2023-03-12T01:12:10.026Z,-1.60
2023-03-12T01:17:12.670Z,-1.60
2023-03-12T01:22:15.248Z,-1.70
2023-03-12T01:27:18.160Z,-1.70
2023-03-12T01:32:20.789Z,-1.70
2023-03-12T01:37:23.671Z,-1.50
2023-03-12T01:42:26.315Z,-1.50
2023-03-12T01:47:33.070Z,-1.50
2023-03-12T01:52:40.297Z,-1.50
2023-03-12T01:57:56.233Z,-1.60
2023-03-12T02:03:04.959Z,-1.70
2023-03-12T02:08:14.906Z,-1.70
2023-03-12T02:13:17.926Z,-1.90
2023-03-12T02:18:22.998Z,-1.90
2023-03-12T02:23:33.781Z,-1.90
2023-03-12T02:28:44.089Z,-1.80
2023-03-12T02:33:47.337Z,-1.80
2023-03-12T02:38:52.541Z,-1.90
2023-03-12T02:44:04.682Z,-1.70
2023-03-12T02:49:09.139Z,-1.50
2023-03-12T02:54:13.543Z,-1.50
2023-03-12T02:59:16.914Z,-1.40
2023-03-12T03:04:21.009Z,-1.30
2023-03-12T03:09:25.453Z,-1.20
2023-03-12T03:14:28.399Z,-1.10
2023-03-12T03:19:31.217Z,-1.10
2023-03-12T03:24:33.879Z,-1.00
2023-03-12T03:29:36.887Z,-1.00
2023-03-12T03:34:39.816Z,-0.90
2023-03-12T03:39:42.750Z,-1.00
2023-03-12T03:44:45.861Z,-1.00
2023-03-12T03:49:48.853Z,-0.90
2023-03-12T03:54:51.515Z,-0.80
2023-03-12T03:59:54.516Z,-0.80
2023-03-12T04:04:59.286Z,-0.70
2023-03-12T04:10:04.592Z,-0.70
2023-03-12T04:15:07.703Z,-0.70
2023-03-12T04:20:11.796Z,-0.60
2023-03-12T04:25:16.440Z,-0.70
2023-03-12T04:30:19.341Z,-0.90
2023-03-12T04:35:22.487Z,-0.90
2023-03-12T04:40:25.523Z,-1.10
2023-03-12T04:45:28.146Z,-1.10
2023-03-12T04:50:31.344Z,-1.30
2023-03-12T04:55:34.104Z,-1.40
2023-03-12T05:00:39.130Z,-1.50
2023-03-12T05:05:41.967Z,-1.60
2023-03-12T05:10:45.673Z,-1.60
2023-03-12T05:15:52.433Z,-1.70
2023-03-12T05:21:16.671Z,-1.60
2023-03-12T05:26:26.465Z,-1.60
2023-03-12T05:31:35.642Z,-1.50
2023-03-12T05:36:40.896Z,-1.50
2023-03-12T05:41:44.084Z,-1.40
2023-03-12T05:46:51.669Z,-1.30
2023-03-12T05:51:54.322Z,-1.30
2023-03-12T05:56:59.356Z,-1.20
2023-03-12T06:02:04.224Z,-1.10
2023-03-12T06:07:08.253Z,-0.80
2023-03-12T06:12:11.395Z,-0.80
2023-03-12T06:17:14.445Z,-0.50
2023-03-12T06:22:17.298Z,-0.10
2023-03-12T06:27:20.215Z,2.10
2023-03-12T06:32:23.117Z,3.80
2023-03-12T06:37:26.284Z,3.50
2023-03-12T06:42:29.033Z,3.50
2023-03-12T06:47:31.761Z,2.70
2023-03-12T06:52:34.562Z,3.50
2023-03-12T06:57:37.218Z,3.60
2023-03-12T07:02:39.872Z,3.60
2023-03-12T07:07:42.745Z,2.50
2023-03-12T07:12:46.491Z,1.90
2023-03-12T07:17:49.352Z,3.40
2023-03-12T07:22:52.009Z,1.90
2023-03-12T07:27:54.645Z,1.50
2023-03-12T07:32:57.680Z,2.10
2023-03-12T07:38:01.716Z,4.00
2023-03-12T07:43:11.444Z,3.40
2023-03-12T07:48:16.376Z,2.90
2023-03-12T07:53:19.360Z,4.40
2023-03-12T07:58:22.191Z,4.70
2023-03-12T08:03:25.077Z,4.20
2023-03-12T08:08:29.059Z,3.90
2023-03-12T08:13:31.825Z,3.50
2023-03-12T08:18:34.909Z,3.10
2023-03-12T08:23:37.572Z,3.80
2023-03-12T08:28:40.502Z,4.00
2023-03-12T08:33:43.803Z,4.20
2023-03-12T08:38:46.418Z,4.10
2023-03-12T08:43:49.240Z,4.70
2023-03-12T08:48:51.918Z,5.70
2023-03-12T08:53:54.616Z,4.80
2023-03-12T08:58:59.554Z,4.70
2023-03-12T09:04:04.110Z,7.30
2023-03-12T09:09:09.425Z,7.90
2023-03-12T09:14:50.178Z,7.70
2023-03-12T09:19:35.475Z,7.90
2023-03-12T09:24:38.362Z,7.60
2023-03-12T09:29:58.775Z,8.50
2023-03-12T09:35:03.147Z,7.40
2023-03-12T09:40:09.627Z,8.20
2023-03-12T09:45:25.198Z,8.60
2023-03-12T09:50:32.098Z,8.80
2023-03-12T09:55:40.598Z,8.70
2023-03-12T10:00:44.520Z,8.00
2023-03-12T10:06:11.250Z,8.70
2023-03-12T10:11:40.154Z,8.60
2023-03-12T10:16:51.975Z,9.10
2023-03-12T10:22:06.136Z,9.40
2023-03-12T10:27:19.204Z,9.20
2023-03-12T10:32:41.313Z,10.20
2023-03-12T10:37:45.378Z,10.20
2023-03-12T10:42:48.770Z,10.50
2023-03-12T10:47:57.603Z,10.90
2023-03-12T10:53:30.020Z,10.70
2023-03-12T10:58:36.575Z,11.40
2023-03-12T11:03:39.733Z,10.00
2023-03-12T11:08:43.381Z,9.90
2023-03-12T11:13:46.141Z,9.80
2023-03-12T11:18:57.738Z,10.10
2023-03-12T11:24:00.392Z,9.60
2023-03-12T11:29:06.535Z,10.00
2023-03-12T11:34:21.571Z,9.70
2023-03-12T11:40:10.294Z,8.60
2023-03-12T11:45:29.932Z,8.80
2023-03-12T11:50:57.082Z,9.80
2023-03-12T11:56:21.235Z,10.00
2023-03-12T12:01:44.987Z,8.40
2023-03-12T12:07:27.987Z,10.50
2023-03-12T12:12:49.426Z,8.40
2023-03-12T12:18:19.798Z,8.50
2023-03-12T12:24:09.582Z,9.00
2023-03-12T12:29:23.073Z,10.60
2023-03-12T12:34:28.497Z,10.50
2023-03-12T12:39:38.813Z,9.00
2023-03-12T12:44:49.933Z,10.60
2023-03-12T12:49:57.874Z,10.50
2023-03-12T12:55:12.579Z,10.30
2023-03-12T13:00:30.618Z,10.90
2023-03-12T13:05:47.164Z,10.20
2023-03-12T13:11:02.082Z,10.20
2023-03-12T13:16:39.137Z,9.90
2023-03-12T13:22:29.968Z,9.90
2023-03-12T13:27:38.940Z,11.10
2023-03-12T13:32:50.954Z,10.70
2023-03-12T13:37:53.607Z,10.50
2023-03-12T13:43:06.317Z,10.50
2023-03-12T13:48:20.522Z,11.10
2023-03-12T13:53:54.121Z,10.90
2023-03-12T13:59:18.121Z,9.90
2023-03-12T14:04:29.382Z,9.70
2023-03-12T14:09:42.143Z,8.40
2023-03-12T14:14:53.861Z,8.20
2023-03-12T14:20:10.889Z,8.70
2023-03-12T14:25:18.379Z,8.40
2023-03-12T14:30:40.227Z,7.60
2023-03-12T14:35:48.244Z,8.10
2023-03-12T14:41:03.257Z,7.50
2023-03-12T14:46:14.748Z,7.90
2023-03-12T14:51:24.629Z,8.10
2023-03-12T14:56:33.678Z,7.60
2023-03-12T15:01:39.888Z,7.40
2023-03-12T15:06:55.710Z,7.30
2023-03-12T15:12:00.126Z,7.00
2023-03-12T15:17:05.188Z,6.80
2023-03-12T15:22:15.236Z,6.90
2023-03-12T15:27:22.655Z,6.60
2023-03-12T15:32:26.453Z,6.60
2023-03-12T15:37:41.308Z,6.60
2023-03-12T15:42:46.573Z,6.50
2023-03-12T15:47:51.408Z,6.40
2023-03-12T15:53:12.927Z,6.20
2023-03-12T15:58:42.044Z,5.90
2023-03-12T16:03:46.068Z,5.90
2023-03-12T16:08:58.812Z,5.90
2023-03-12T16:14:14.139Z,5.70
2023-03-12T16:19:18.860Z,5.70
2023-03-12T16:24:21.651Z,5.50
2023-03-12T16:29:38.436Z,5.60
2023-03-12T16:34:41.454Z,5.40
2023-03-12T16:39:46.703Z,5.10
2023-03-12T16:44:49.546Z,5.00
2023-03-12T16:49:52.535Z,4.70
2023-03-12T16:54:55.434Z,4.60
2023-03-12T16:59:58.667Z,4.60
2023-03-12T17:05:02.037Z,4.50
2023-03-12T17:10:05.809Z,4.40
2023-03-12T17:15:16.683Z,4.40
2023-03-12T17:20:22.304Z,4.20
2023-03-12T17:25:29.060Z,4.00
2023-03-12T17:30:33.048Z,3.80
2023-03-12T17:35:36.628Z,3.80
2023-03-12T17:40:44.163Z,3.90
2023-03-12T17:45:46.939Z,3.90
2023-03-12T17:50:49.979Z,3.90
2023-03-12T17:55:52.736Z,3.90
2023-03-12T18:00:55.415Z,3.80
2023-03-12T18:05:58.217Z,3.80
2023-03-12T18:11:01.983Z,3.80
2023-03-12T18:16:05.132Z,3.80
2023-03-12T18:21:07.998Z,3.70
2023-03-12T18:26:11.075Z,3.60
2023-03-12T18:31:13.950Z,3.50
2023-03-12T18:36:16.754Z,3.50
2023-03-12T18:41:20.068Z,3.40
2023-03-12T18:46:24.177Z,3.30
2023-03-12T18:51:26.929Z,3.10
2023-03-12T18:56:29.808Z,3.00
2023-03-12T19:01:32.761Z,2.90
2023-03-12T19:06:49.754Z,2.80
2023-03-12T19:11:53.723Z,2.70
2023-03-12T19:16:57.518Z,2.80
2023-03-12T19:22:00.308Z,2.70
2023-03-12T19:27:02.999Z,2.60
2023-03-12T19:32:06.079Z,2.50
2023-03-12T19:37:08.831Z,2.40
2023-03-12T19:42:11.466Z,2.30
2023-03-12T19:47:15.636Z,2.30
2023-03-12T19:52:20.412Z,2.40
2023-03-12T19:57:23.129Z,2.50
2023-03-12T20:02:26.572Z,2.50
2023-03-12T20:07:29.710Z,2.60
2023-03-12T20:12:33.432Z,2.70
2023-03-12T20:17:36.264Z,2.70
2023-03-12T20:22:39.080Z,2.80
2023-03-12T20:27:41.841Z,3.10
2023-03-12T20:32:44.992Z,3.10
2023-03-12T20:37:47.950Z,3.20
2023-03-12T20:42:50.651Z,3.30
2023-03-12T20:47:54.612Z,3.40
2023-03-12T20:52:57.297Z,3.40
2023-03-12T20:58:00.269Z,3.30
2023-03-12T21:03:03.004Z,3.40
2023-03-12T21:08:06.090Z,3.40
2023-03-12T21:13:08.849Z,3.50
2023-03-12T21:18:11.724Z,3.40
2023-03-12T21:23:14.708Z,3.50
2023-03-12T21:28:18.439Z,3.60
2023-03-12T21:33:22.280Z,3.60
2023-03-12T21:38:25.118Z,3.60
2023-03-12T21:43:29.930Z,3.70
2023-03-12T21:48:33.014Z,3.60
2023-03-12T21:53:36.680Z,3.60
2023-03-12T21:58:39.609Z,3.50
2023-03-12T22:03:43.967Z,3.40
2023-03-12T22:08:48.395Z,3.50
2023-03-12T22:13:51.075Z,3.60
2023-03-12T22:18:53.705Z,3.70
2023-03-12T22:23:57.533Z,3.70
2023-03-12T22:29:01.444Z,3.70
2023-03-12T22:34:04.109Z,3.70
2023-03-12T22:39:06.848Z,3.70
2023-03-12T22:44:09.834Z,3.80
2023-03-12T22:49:12.661Z,4.00
2023-03-12T22:54:15.388Z,4.20
2023-03-12T22:59:18.103Z,4.20
2023-03-12T23:04:20.961Z,4.30
2023-03-12T23:09:23.679Z,4.40
2023-03-12T23:14:26.295Z,4.50
2023-03-12T23:19:33.574Z,4.50
2023-03-12T23:24:36.527Z,4.60
2023-03-12T23:29:39.157Z,4.60
2023-03-12T23:34:41.757Z,4.80
2023-03-12T23:39:54.005Z,4.80
2023-03-12T23:44:57.613Z,5.00
2023-03-12T23:50:00.288Z,5.00
2023-03-12T23:55:02.925Z,5.10
